sensor_id;sensor_type;location;lat;lon;timestamp;temperature;humidity
46590;DHT22;32313;48.722;9.362;2024-03-07T00:00:06;3.40;99.90
46590;DHT22;32313;48.722;9.362;2024-03-07T00:02:50;3.30;99.90
46590;DHT22;32313;48.722;9.362;2024-03-07T00:05:18;3.30;99.90
46590;DHT22;32313;48.722;9.362;2024-03-07T00:07:44;3.30;99.90
46590;DHT22;32313;48.722;9.362;2024-03-07T00:10:11;3.30;99.90
46590;DHT22;32313;48.722;9.362;2024-03-07T00:12:38;3.40;99.90
46590;DHT22;32313;48.722;9.362;2024-03-07T00:15:11;3.40;99.90
46590;DHT22;32313;48.722;9.362;2024-03-07T00:17:37;3.40;99.90
46590;DHT22;32313;48.722;9.362;2024-03-07T00:20:03;3.50;99.90
46590;DHT22;32313;48.722;9.362;2024-03-07T00:22:33;3.60;99.90
46590;DHT22;32313;48.722;9.362;2024-03-07T00:24:58;3.60;99.90
46590;DHT22;32313;48.722;9.362;2024-03-07T00:27:24;3.60;99.90
46590;DHT22;32313;48.722;9.362;2024-03-07T00:29:51;3.70;99.90
46590;DHT22;32313;48.722;9.362;2024-03-07T00:32:20;3.70;99.90
46590;DHT22;32313;48.722;9.362;2024-03-07T00:34:47;3.70;99.90
46590;DHT22;32313;48.722;9.362;2024-03-07T00:37:12;3.60;99.90
46590;DHT22;32313;48.722;9.362;2024-03-07T00:39:38;3.60;99.90
46590;DHT22;32313;48.722;9.362;2024-03-07T00:42:04;3.60;99.90
46590;DHT22;32313;48.722;9.362;2024-03-07T00:44:30;3.60;99.90
46590;DHT22;32313;48.722;9.362;2024-03-07T00:46:56;3.60;99.90
46590;DHT22;32313;48.722;9.362;2024-03-07T00:49:23;3.60;99.90
46590;DHT22;32313;48.722;9.362;2024-03-07T00:51:48;3.50;99.90
46590;DHT22;32313;48.722;9.362;2024-03-07T00:54:14;3.50;99.90
46590;DHT22;32313;48.722;9.362;2024-03-07T00:56:41;3.50;99.90
46590;DHT22;32313;48.722;9.362;2024-03-07T00:59:07;3.40;99.90
46590;DHT22;32313;48.722;9.362;2024-03-07T01:01:33;3.40;99.90
46590;DHT22;32313;48.722;9.362;2024-03-07T01:04:02;3.30;99.90
46590;DHT22;32313;48.722;9.362;2024-03-07T01:06:28;3.30;99.90
46590;DHT22;32313;48.722;9.362;2024-03-07T01:08:54;3.20;99.90
46590;DHT22;32313;48.722;9.362;2024-03-07T01:11:19;3.20;99.90
46590;DHT22;32313;48.722;9.362;2024-03-07T01:13:45;3.10;99.90
46590;DHT22;32313;48.722;9.362;2024-03-07T01:16:12;3.10;99.90
46590;DHT22;32313;48.722;9.362;2024-03-07T01:18:39;3.10;99.90
46590;DHT22;32313;48.722;9.362;2024-03-07T01:21:05;3.00;99.90
46590;DHT22;32313;48.722;9.362;2024-03-07T01:23:31;2.90;99.90
46590;DHT22;32313;48.722;9.362;2024-03-07T01:25:58;2.90;99.90
46590;DHT22;32313;48.722;9.362;2024-03-07T01:28:28;2.80;99.90
46590;DHT22;32313;48.722;9.362;2024-03-07T01:30:56;2.80;99.90
46590;DHT22;32313;48.722;9.362;2024-03-07T01:33:22;2.70;99.90
46590;DHT22;32313;48.722;9.362;2024-03-07T01:35:48;2.60;99.90
46590;DHT22;32313;48.722;9.362;2024-03-07T01:38:15;2.60;99.90
46590;DHT22;32313;48.722;9.362;2024-03-07T01:40:44;2.50;99.90
46590;DHT22;32313;48.722;9.362;2024-03-07T01:43:10;2.50;99.90
46590;DHT22;32313;48.722;9.362;2024-03-07T01:45:37;2.40;99.90
46590;DHT22;32313;48.722;9.362;2024-03-07T01:48:10;2.30;99.90
46590;DHT22;32313;48.722;9.362;2024-03-07T01:50:38;2.30;99.90
46590;DHT22;32313;48.722;9.362;2024-03-07T01:53:04;2.20;99.90
46590;DHT22;32313;48.722;9.362;2024-03-07T01:55:32;2.20;99.90
46590;DHT22;32313;48.722;9.362;2024-03-07T01:57:59;2.20;99.90
46590;DHT22;32313;48.722;9.362;2024-03-07T02:00:25;2.20;99.90
46590;DHT22;32313;48.722;9.362;2024-03-07T02:02:52;2.20;99.90
46590;DHT22;32313;48.722;9.362;2024-03-07T02:05:19;2.20;99.90
46590;DHT22;32313;48.722;9.362;2024-03-07T02:07:45;2.20;99.90
46590;DHT22;32313;48.722;9.362;2024-03-07T02:10:11;2.20;99.90
46590;DHT22;32313;48.722;9.362;2024-03-07T02:12:36;2.20;99.90
46590;DHT22;32313;48.722;9.362;2024-03-07T02:15:02;2.20;99.90
46590;DHT22;32313;48.722;9.362;2024-03-07T02:17:28;2.20;99.90
46590;DHT22;32313;48.722;9.362;2024-03-07T02:19:54;2.10;99.90
46590;DHT22;32313;48.722;9.362;2024-03-07T02:22:19;2.10;99.90
46590;DHT22;32313;48.722;9.362;2024-03-07T02:24:46;2.00;99.90
46590;DHT22;32313;48.722;9.362;2024-03-07T02:27:12;1.90;99.90
46590;DHT22;32313;48.722;9.362;2024-03-07T02:29:42;1.80;99.90
46590;DHT22;32313;48.722;9.362;2024-03-07T02:32:27;1.70;99.90
46590;DHT22;32313;48.722;9.362;2024-03-07T02:34:52;1.60;99.90
46590;DHT22;32313;48.722;9.362;2024-03-07T02:37:18;1.50;99.90
46590;DHT22;32313;48.722;9.362;2024-03-07T02:39:43;1.40;99.90
46590;DHT22;32313;48.722;9.362;2024-03-07T02:42:09;1.40;99.90
46590;DHT22;32313;48.722;9.362;2024-03-07T02:44:35;1.20;99.90
46590;DHT22;32313;48.722;9.362;2024-03-07T02:47:00;1.10;99.90
46590;DHT22;32313;48.722;9.362;2024-03-07T02:49:29;1.00;99.90
46590;DHT22;32313;48.722;9.362;2024-03-07T02:51:55;0.90;99.90
46590;DHT22;32313;48.722;9.362;2024-03-07T02:54:20;0.90;99.90
46590;DHT22;32313;48.722;9.362;2024-03-07T02:56:46;0.80;99.90
46590;DHT22;32313;48.722;9.362;2024-03-07T02:59:12;0.70;99.90
46590;DHT22;32313;48.722;9.362;2024-03-07T03:01:39;0.70;99.90
46590;DHT22;32313;48.722;9.362;2024-03-07T03:04:05;0.60;99.90
46590;DHT22;32313;48.722;9.362;2024-03-07T03:06:31;0.60;99.90
46590;DHT22;32313;48.722;9.362;2024-03-07T03:08:57;0.50;99.90
46590;DHT22;32313;48.722;9.362;2024-03-07T03:11:24;0.50;99.90
46590;DHT22;32313;48.722;9.362;2024-03-07T03:13:51;0.40;99.90
46590;DHT22;32313;48.722;9.362;2024-03-07T03:16:18;0.40;99.90
46590;DHT22;32313;48.722;9.362;2024-03-07T03:18:43;0.40;99.90
46590;DHT22;32313;48.722;9.362;2024-03-07T03:21:09;0.40;99.90
46590;DHT22;32313;48.722;9.362;2024-03-07T03:23:34;0.30;99.90
46590;DHT22;32313;48.722;9.362;2024-03-07T03:26:01;0.20;99.90
46590;DHT22;32313;48.722;9.362;2024-03-07T03:28:27;0.20;99.90
46590;DHT22;32313;48.722;9.362;2024-03-07T03:30:53;0.20;99.90
46590;DHT22;32313;48.722;9.362;2024-03-07T03:33:19;0.10;99.90
46590;DHT22;32313;48.722;9.362;2024-03-07T03:35:46;0.00;99.90
46590;DHT22;32313;48.722;9.362;2024-03-07T03:38:12;0.10;99.90
46590;DHT22;32313;48.722;9.362;2024-03-07T03:40:38;0.10;99.90
46590;DHT22;32313;48.722;9.362;2024-03-07T03:43:04;0.10;99.90
46590;DHT22;32313;48.722;9.362;2024-03-07T03:45:30;0.10;99.90
46590;DHT22;32313;48.722;9.362;2024-03-07T03:47:57;0.10;99.90
46590;DHT22;32313;48.722;9.362;2024-03-07T03:50:23;0.10;99.90
46590;DHT22;32313;48.722;9.362;2024-03-07T03:52:49;0.10;99.90
46590;DHT22;32313;48.722;9.362;2024-03-07T03:55:15;0.00;99.90
46590;DHT22;32313;48.722;9.362;2024-03-07T03:57:42;0.00;99.90
46590;DHT22;32313;48.722;9.362;2024-03-07T04:00:09;0.00;99.90
46590;DHT22;32313;48.722;9.362;2024-03-07T04:02:45;0.00;99.90
46590;DHT22;32313;48.722;9.362;2024-03-07T04:05:14;-0.10;99.90
46590;DHT22;32313;48.722;9.362;2024-03-07T04:07:41;-0.10;99.90
46590;DHT22;32313;48.722;9.362;2024-03-07T04:10:11;-0.20;99.90
46590;DHT22;32313;48.722;9.362;2024-03-07T04:12:46;-0.20;99.90
46590;DHT22;32313;48.722;9.362;2024-03-07T04:15:13;-0.20;99.90
46590;DHT22;32313;48.722;9.362;2024-03-07T04:17:42;-0.10;99.90
46590;DHT22;32313;48.722;9.362;2024-03-07T04:20:08;-0.10;99.90
46590;DHT22;32313;48.722;9.362;2024-03-07T04:22:38;-0.20;99.90
46590;DHT22;32313;48.722;9.362;2024-03-07T04:25:08;-0.20;99.90
46590;DHT22;32313;48.722;9.362;2024-03-07T04:27:34;-0.30;99.90
46590;DHT22;32313;48.722;9.362;2024-03-07T04:30:03;-0.40;99.90
46590;DHT22;32313;48.722;9.362;2024-03-07T04:32:30;-0.30;99.90
46590;DHT22;32313;48.722;9.362;2024-03-07T04:34:56;-0.40;99.90
46590;DHT22;32313;48.722;9.362;2024-03-07T04:37:24;-0.40;99.90
46590;DHT22;32313;48.722;9.362;2024-03-07T04:39:50;-0.40;99.90
46590;DHT22;32313;48.722;9.362;2024-03-07T04:42:15;-0.40;99.90
46590;DHT22;32313;48.722;9.362;2024-03-07T04:44:41;-0.30;99.90
46590;DHT22;32313;48.722;9.362;2024-03-07T04:47:07;-0.10;99.90
46590;DHT22;32313;48.722;9.362;2024-03-07T04:49:34;-0.10;99.90
46590;DHT22;32313;48.722;9.362;2024-03-07T04:52:02;-0.10;99.90
46590;DHT22;32313;48.722;9.362;2024-03-07T04:54:29;0.00;99.90
46590;DHT22;32313;48.722;9.362;2024-03-07T04:56:55;0.00;99.90
46590;DHT22;32313;48.722;9.362;2024-03-07T04:59:21;0.00;99.90
46590;DHT22;32313;48.722;9.362;2024-03-07T05:01:49;0.00;99.90
46590;DHT22;32313;48.722;9.362;2024-03-07T05:04:16;0.10;99.90
46590;DHT22;32313;48.722;9.362;2024-03-07T05:06:42;0.10;99.90
46590;DHT22;32313;48.722;9.362;2024-03-07T05:09:09;0.20;99.90
46590;DHT22;32313;48.722;9.362;2024-03-07T05:11:36;0.20;99.90
46590;DHT22;32313;48.722;9.362;2024-03-07T05:14:02;0.10;99.90
46590;DHT22;32313;48.722;9.362;2024-03-07T05:16:29;0.10;99.90
46590;DHT22;32313;48.722;9.362;2024-03-07T05:18:56;0.10;99.90
46590;DHT22;32313;48.722;9.362;2024-03-07T05:21:28;0.10;99.90
46590;DHT22;32313;48.722;9.362;2024-03-07T05:24:00;0.10;99.90
46590;DHT22;32313;48.722;9.362;2024-03-07T05:26:27;0.20;99.90
46590;DHT22;32313;48.722;9.362;2024-03-07T05:28:53;0.20;99.90
46590;DHT22;32313;48.722;9.362;2024-03-07T05:31:21;0.10;99.90
46590;DHT22;32313;48.722;9.362;2024-03-07T05:33:48;0.10;99.90
46590;DHT22;32313;48.722;9.362;2024-03-07T05:36:13;0.10;99.90
46590;DHT22;32313;48.722;9.362;2024-03-07T05:38:43;0.10;99.90
46590;DHT22;32313;48.722;9.362;2024-03-07T05:41:12;0.10;99.90
46590;DHT22;32313;48.722;9.362;2024-03-07T05:43:39;0.00;99.90
46590;DHT22;32313;48.722;9.362;2024-03-07T05:46:05;0.00;99.90
46590;DHT22;32313;48.722;9.362;2024-03-07T05:48:35;-0.10;99.90
46590;DHT22;32313;48.722;9.362;2024-03-07T05:51:01;-0.10;99.90
46590;DHT22;32313;48.722;9.362;2024-03-07T05:53:27;-0.10;99.90
46590;DHT22;32313;48.722;9.362;2024-03-07T05:55:53;-0.10;99.90
46590;DHT22;32313;48.722;9.362;2024-03-07T05:58:18;-0.10;99.90
46590;DHT22;32313;48.722;9.362;2024-03-07T06:00:47;-0.20;99.90
46590;DHT22;32313;48.722;9.362;2024-03-07T06:03:19;-0.20;99.90
46590;DHT22;32313;48.722;9.362;2024-03-07T06:05:49;-0.20;99.90
46590;DHT22;32313;48.722;9.362;2024-03-07T06:08:17;-0.30;99.90
46590;DHT22;32313;48.722;9.362;2024-03-07T06:10:43;-0.30;99.90
46590;DHT22;32313;48.722;9.362;2024-03-07T06:13:10;-0.40;99.90
46590;DHT22;32313;48.722;9.362;2024-03-07T06:15:42;-0.40;99.90
46590;DHT22;32313;48.722;9.362;2024-03-07T06:18:08;-0.40;99.90
46590;DHT22;32313;48.722;9.362;2024-03-07T06:20:34;-0.50;99.90
46590;DHT22;32313;48.722;9.362;2024-03-07T06:23:01;-0.50;99.90
46590;DHT22;32313;48.722;9.362;2024-03-07T06:25:34;-0.40;99.90
46590;DHT22;32313;48.722;9.362;2024-03-07T06:28:10;-0.30;99.90
46590;DHT22;32313;48.722;9.362;2024-03-07T06:30:40;-0.30;99.90
46590;DHT22;32313;48.722;9.362;2024-03-07T06:33:07;-0.20;99.90
46590;DHT22;32313;48.722;9.362;2024-03-07T06:35:33;-0.10;99.90
46590;DHT22;32313;48.722;9.362;2024-03-07T06:38:03;0.00;99.90
46590;DHT22;32313;48.722;9.362;2024-03-07T06:40:29;0.10;99.90
46590;DHT22;32313;48.722;9.362;2024-03-07T06:42:55;0.20;99.90
46590;DHT22;32313;48.722;9.362;2024-03-07T06:45:21;0.30;99.90
46590;DHT22;32313;48.722;9.362;2024-03-07T06:47:50;0.40;99.90
46590;DHT22;32313;48.722;9.362;2024-03-07T06:50:18;0.50;99.90
46590;DHT22;32313;48.722;9.362;2024-03-07T06:52:48;0.60;99.90
46590;DHT22;32313;48.722;9.362;2024-03-07T06:55:18;0.80;99.90
46590;DHT22;32313;48.722;9.362;2024-03-07T06:57:44;0.90;99.90
46590;DHT22;32313;48.722;9.362;2024-03-07T07:00:11;1.00;99.90
46590;DHT22;32313;48.722;9.362;2024-03-07T07:02:40;1.10;99.90
46590;DHT22;32313;48.722;9.362;2024-03-07T07:05:09;1.30;99.90
46590;DHT22;32313;48.722;9.362;2024-03-07T07:07:50;1.30;99.90
46590;DHT22;32313;48.722;9.362;2024-03-07T07:10:19;1.40;99.90
46590;DHT22;32313;48.722;9.362;2024-03-07T07:12:45;1.50;99.90
46590;DHT22;32313;48.722;9.362;2024-03-07T07:15:14;1.70;99.90
46590;DHT22;32313;48.722;9.362;2024-03-07T07:17:42;1.80;99.90
46590;DHT22;32313;48.722;9.362;2024-03-07T07:20:11;1.90;99.90
46590;DHT22;32313;48.722;9.362;2024-03-07T07:22:39;2.00;99.90
46590;DHT22;32313;48.722;9.362;2024-03-07T07:25:05;2.10;99.90
46590;DHT22;32313;48.722;9.362;2024-03-07T07:27:49;2.10;99.90
46590;DHT22;32313;48.722;9.362;2024-03-07T07:30:17;2.10;99.90
46590;DHT22;32313;48.722;9.362;2024-03-07T07:32:43;2.00;99.90
46590;DHT22;32313;48.722;9.362;2024-03-07T07:35:10;2.00;99.90
46590;DHT22;32313;48.722;9.362;2024-03-07T07:37:52;2.00;99.90
46590;DHT22;32313;48.722;9.362;2024-03-07T07:40:20;2.10;99.90
46590;DHT22;32313;48.722;9.362;2024-03-07T07:42:49;2.20;99.90
46590;DHT22;32313;48.722;9.362;2024-03-07T07:45:18;2.30;99.90
46590;DHT22;32313;48.722;9.362;2024-03-07T07:47:45;2.40;99.90
46590;DHT22;32313;48.722;9.362;2024-03-07T07:50:12;2.50;99.90
46590;DHT22;32313;48.722;9.362;2024-03-07T07:52:57;2.60;99.90
46590;DHT22;32313;48.722;9.362;2024-03-07T07:55:24;2.70;99.90
46590;DHT22;32313;48.722;9.362;2024-03-07T07:58:00;2.80;99.90
46590;DHT22;32313;48.722;9.362;2024-03-07T08:00:30;2.80;99.90
46590;DHT22;32313;48.722;9.362;2024-03-07T08:03:06;2.90;99.90
46590;DHT22;32313;48.722;9.362;2024-03-07T08:05:33;3.00;99.90
46590;DHT22;32313;48.722;9.362;2024-03-07T08:08:01;3.10;99.90
46590;DHT22;32313;48.722;9.362;2024-03-07T08:10:31;3.10;99.90
46590;DHT22;32313;48.722;9.362;2024-03-07T08:12:57;3.30;99.90
46590;DHT22;32313;48.722;9.362;2024-03-07T08:15:25;3.40;99.90
46590;DHT22;32313;48.722;9.362;2024-03-07T08:17:51;3.50;99.90
46590;DHT22;32313;48.722;9.362;2024-03-07T08:20:19;3.60;99.90
46590;DHT22;32313;48.722;9.362;2024-03-07T08:22:49;3.70;99.90
46590;DHT22;32313;48.722;9.362;2024-03-07T08:25:20;3.80;99.90
46590;DHT22;32313;48.722;9.362;2024-03-07T08:27:48;4.00;99.90
46590;DHT22;32313;48.722;9.362;2024-03-07T08:30:14;4.10;99.90
46590;DHT22;32313;48.722;9.362;2024-03-07T08:32:44;4.10;99.90
46590;DHT22;32313;48.722;9.362;2024-03-07T08:35:10;4.20;99.90
46590;DHT22;32313;48.722;9.362;2024-03-07T08:37:41;4.30;99.90
46590;DHT22;32313;48.722;9.362;2024-03-07T08:40:08;4.40;99.90
46590;DHT22;32313;48.722;9.362;2024-03-07T08:42:39;4.50;99.90
46590;DHT22;32313;48.722;9.362;2024-03-07T08:45:07;4.50;99.90
46590;DHT22;32313;48.722;9.362;2024-03-07T08:47:36;4.50;99.90
46590;DHT22;32313;48.722;9.362;2024-03-07T08:50:03;4.50;99.90
46590;DHT22;32313;48.722;9.362;2024-03-07T08:52:34;4.50;99.90
46590;DHT22;32313;48.722;9.362;2024-03-07T08:55:02;4.60;99.90
46590;DHT22;32313;48.722;9.362;2024-03-07T08:57:30;4.60;99.90
46590;DHT22;32313;48.722;9.362;2024-03-07T08:59:56;4.60;99.90
46590;DHT22;32313;48.722;9.362;2024-03-07T09:02:22;4.60;99.90
46590;DHT22;32313;48.722;9.362;2024-03-07T09:04:48;4.80;99.90
46590;DHT22;32313;48.722;9.362;2024-03-07T09:07:16;4.90;99.90
46590;DHT22;32313;48.722;9.362;2024-03-07T09:09:43;5.00;99.90
46590;DHT22;32313;48.722;9.362;2024-03-07T09:12:11;5.10;99.90
46590;DHT22;32313;48.722;9.362;2024-03-07T09:14:37;5.30;99.90
46590;DHT22;32313;48.722;9.362;2024-03-07T09:17:03;5.40;99.90
46590;DHT22;32313;48.722;9.362;2024-03-07T09:19:35;5.60;99.90
46590;DHT22;32313;48.722;9.362;2024-03-07T09:22:00;5.80;99.90
46590;DHT22;32313;48.722;9.362;2024-03-07T09:24:29;6.00;99.90
46590;DHT22;32313;48.722;9.362;2024-03-07T09:26:55;6.20;99.90
46590;DHT22;32313;48.722;9.362;2024-03-07T09:29:22;6.30;99.90
46590;DHT22;32313;48.722;9.362;2024-03-07T09:31:51;6.40;99.90
46590;DHT22;32313;48.722;9.362;2024-03-07T09:34:19;6.70;99.90
46590;DHT22;32313;48.722;9.362;2024-03-07T09:36:46;7.10;99.90
46590;DHT22;32313;48.722;9.362;2024-03-07T09:39:12;7.30;99.90
46590;DHT22;32313;48.722;9.362;2024-03-07T09:41:38;7.40;99.90
46590;DHT22;32313;48.722;9.362;2024-03-07T09:44:05;7.50;99.90
46590;DHT22;32313;48.722;9.362;2024-03-07T09:46:32;7.80;99.90
46590;DHT22;32313;48.722;9.362;2024-03-07T09:48:58;8.10;99.90
46590;DHT22;32313;48.722;9.362;2024-03-07T09:51:24;8.50;99.90
46590;DHT22;32313;48.722;9.362;2024-03-07T09:53:51;8.80;99.90
46590;DHT22;32313;48.722;9.362;2024-03-07T09:56:22;9.40;99.90
46590;DHT22;32313;48.722;9.362;2024-03-07T09:58:52;9.90;99.90
46590;DHT22;32313;48.722;9.362;2024-03-07T10:01:21;10.10;99.90
46590;DHT22;32313;48.722;9.362;2024-03-07T10:03:47;10.00;99.90
46590;DHT22;32313;48.722;9.362;2024-03-07T10:06:14;10.00;99.90
46590;DHT22;32313;48.722;9.362;2024-03-07T10:08:43;10.20;99.90
46590;DHT22;32313;48.722;9.362;2024-03-07T10:11:09;10.30;99.90
46590;DHT22;32313;48.722;9.362;2024-03-07T10:13:35;10.40;99.90
46590;DHT22;32313;48.722;9.362;2024-03-07T10:16:04;10.40;99.90
46590;DHT22;32313;48.722;9.362;2024-03-07T10:18:31;10.20;99.90
46590;DHT22;32313;48.722;9.362;2024-03-07T10:20:57;10.00;99.90
46590;DHT22;32313;48.722;9.362;2024-03-07T10:23:23;9.90;99.90
46590;DHT22;32313;48.722;9.362;2024-03-07T10:25:52;9.70;99.90
46590;DHT22;32313;48.722;9.362;2024-03-07T10:28:20;9.60;99.90
46590;DHT22;32313;48.722;9.362;2024-03-07T10:30:46;9.40;99.90
46590;DHT22;32313;48.722;9.362;2024-03-07T10:33:16;9.20;99.90
46590;DHT22;32313;48.722;9.362;2024-03-07T10:35:42;9.00;99.90
46590;DHT22;32313;48.722;9.362;2024-03-07T10:38:08;8.70;99.90
46590;DHT22;32313;48.722;9.362;2024-03-07T10:40:38;8.60;99.90
46590;DHT22;32313;48.722;9.362;2024-03-07T10:43:10;8.70;99.90
46590;DHT22;32313;48.722;9.362;2024-03-07T10:45:46;9.20;99.90
46590;DHT22;32313;48.722;9.362;2024-03-07T10:48:13;9.20;99.90
46590;DHT22;32313;48.722;9.362;2024-03-07T10:50:59;9.20;99.90
46590;DHT22;32313;48.722;9.362;2024-03-07T10:54:24;9.20;99.90
46590;DHT22;32313;48.722;9.362;2024-03-07T10:57:07;9.20;99.90
46590;DHT22;32313;48.722;9.362;2024-03-07T10:59:42;9.10;99.90
46590;DHT22;32313;48.722;9.362;2024-03-07T11:02:31;9.00;99.90
46590;DHT22;32313;48.722;9.362;2024-03-07T11:04:59;9.00;99.90
46590;DHT22;32313;48.722;9.362;2024-03-07T11:07:25;9.00;99.90
46590;DHT22;32313;48.722;9.362;2024-03-07T11:09:53;8.90;99.90
46590;DHT22;32313;48.722;9.362;2024-03-07T11:12:24;9.00;99.90
46590;DHT22;32313;48.722;9.362;2024-03-07T11:14:53;9.30;99.90
46590;DHT22;32313;48.722;9.362;2024-03-07T11:17:21;9.40;99.90
46590;DHT22;32313;48.722;9.362;2024-03-07T11:19:47;9.50;99.90
46590;DHT22;32313;48.722;9.362;2024-03-07T11:22:31;9.30;99.90
46590;DHT22;32313;48.722;9.362;2024-03-07T11:25:05;9.90;99.90
46590;DHT22;32313;48.722;9.362;2024-03-07T11:27:39;10.30;99.90
46590;DHT22;32313;48.722;9.362;2024-03-07T11:30:06;9.90;99.90
46590;DHT22;32313;48.722;9.362;2024-03-07T11:32:37;9.70;99.90
46590;DHT22;32313;48.722;9.362;2024-03-07T11:35:12;10.50;99.90
46590;DHT22;32313;48.722;9.362;2024-03-07T11:37:41;11.90;99.90
46590;DHT22;32313;48.722;9.362;2024-03-07T11:43:01;12.30;99.90
46590;DHT22;32313;48.722;9.362;2024-03-07T11:45:30;12.20;99.90
46590;DHT22;32313;48.722;9.362;2024-03-07T11:48:00;12.10;99.90
46590;DHT22;32313;48.722;9.362;2024-03-07T11:50:32;12.60;99.90
46590;DHT22;32313;48.722;9.362;2024-03-07T11:53:02;12.50;99.90
46590;DHT22;32313;48.722;9.362;2024-03-07T11:55:28;11.90;99.90
46590;DHT22;32313;48.722;9.362;2024-03-07T11:57:55;12.10;99.90
46590;DHT22;32313;48.722;9.362;2024-03-07T12:00:21;12.00;99.90
46590;DHT22;32313;48.722;9.362;2024-03-07T12:02:49;12.20;99.90
46590;DHT22;32313;48.722;9.362;2024-03-07T12:05:15;12.20;99.90
46590;DHT22;32313;48.722;9.362;2024-03-07T12:07:42;12.10;99.90
46590;DHT22;32313;48.722;9.362;2024-03-07T12:10:08;11.80;99.90
46590;DHT22;32313;48.722;9.362;2024-03-07T12:12:36;11.50;99.90
46590;DHT22;32313;48.722;9.362;2024-03-07T12:15:06;11.40;99.90
46590;DHT22;32313;48.722;9.362;2024-03-07T12:17:42;11.10;99.90
46590;DHT22;32313;48.722;9.362;2024-03-07T12:20:09;10.70;99.90
46590;DHT22;32313;48.722;9.362;2024-03-07T12:22:51;10.50;99.90
46590;DHT22;32313;48.722;9.362;2024-03-07T12:25:19;10.60;99.90
46590;DHT22;32313;48.722;9.362;2024-03-07T12:27:58;10.80;99.90
46590;DHT22;32313;48.722;9.362;2024-03-07T12:30:27;10.70;99.90
46590;DHT22;32313;48.722;9.362;2024-03-07T12:33:02;10.70;99.90
46590;DHT22;32313;48.722;9.362;2024-03-07T12:35:33;10.60;99.90
46590;DHT22;32313;48.722;9.362;2024-03-07T12:37:59;10.50;99.90
46590;DHT22;32313;48.722;9.362;2024-03-07T12:40:26;10.30;99.90
46590;DHT22;32313;48.722;9.362;2024-03-07T12:42:54;10.30;99.90
46590;DHT22;32313;48.722;9.362;2024-03-07T12:45:20;10.20;99.90
46590;DHT22;32313;48.722;9.362;2024-03-07T12:47:47;10.00;99.90
46590;DHT22;32313;48.722;9.362;2024-03-07T12:50:17;9.80;99.90
46590;DHT22;32313;48.722;9.362;2024-03-07T12:52:49;9.60;99.90
46590;DHT22;32313;48.722;9.362;2024-03-07T12:55:18;9.40;99.90
46590;DHT22;32313;48.722;9.362;2024-03-07T12:57:50;9.20;99.90
46590;DHT22;32313;48.722;9.362;2024-03-07T13:00:17;9.00;99.90
46590;DHT22;32313;48.722;9.362;2024-03-07T13:02:46;8.90;99.90
46590;DHT22;32313;48.722;9.362;2024-03-07T13:05:12;8.80;99.90
46590;DHT22;32313;48.722;9.362;2024-03-07T13:07:49;8.80;99.90
46590;DHT22;32313;48.722;9.362;2024-03-07T13:10:15;8.70;99.90
46590;DHT22;32313;48.722;9.362;2024-03-07T13:12:42;8.60;99.90
46590;DHT22;32313;48.722;9.362;2024-03-07T13:15:13;8.50;99.90
46590;DHT22;32313;48.722;9.362;2024-03-07T13:17:39;8.40;99.90
46590;DHT22;32313;48.722;9.362;2024-03-07T13:20:05;8.40;99.90
46590;DHT22;32313;48.722;9.362;2024-03-07T13:22:44;8.40;99.90
46590;DHT22;32313;48.722;9.362;2024-03-07T13:25:17;8.50;99.90
46590;DHT22;32313;48.722;9.362;2024-03-07T13:30:23;8.50;99.90
46590;DHT22;32313;48.722;9.362;2024-03-07T13:32:56;8.50;99.90
46590;DHT22;32313;48.722;9.362;2024-03-07T13:35:23;8.60;99.90
46590;DHT22;32313;48.722;9.362;2024-03-07T13:37:52;8.60;99.90
46590;DHT22;32313;48.722;9.362;2024-03-07T13:40:19;8.60;99.90
46590;DHT22;32313;48.722;9.362;2024-03-07T13:42:49;8.50;99.90
46590;DHT22;32313;48.722;9.362;2024-03-07T13:45:18;8.50;99.90
46590;DHT22;32313;48.722;9.362;2024-03-07T13:47:46;8.50;99.90
46590;DHT22;32313;48.722;9.362;2024-03-07T13:50:16;8.60;99.90
46590;DHT22;32313;48.722;9.362;2024-03-07T13:52:45;8.60;99.90
46590;DHT22;32313;48.722;9.362;2024-03-07T13:55:31;8.60;99.90
46590;DHT22;32313;48.722;9.362;2024-03-07T13:58:07;8.80;99.90
46590;DHT22;32313;48.722;9.362;2024-03-07T14:00:49;8.80;99.90
46590;DHT22;32313;48.722;9.362;2024-03-07T14:06:42;8.80;99.90
46590;DHT22;32313;48.722;9.362;2024-03-07T14:21:16;9.10;99.90
46590;DHT22;32313;48.722;9.362;2024-03-07T14:26:56;9.10;99.90
46590;DHT22;32313;48.722;9.362;2024-03-07T14:29:43;9.10;99.90
46590;DHT22;32313;48.722;9.362;2024-03-07T14:32:11;9.00;99.90
46590;DHT22;32313;48.722;9.362;2024-03-07T14:35:02;8.90;99.90
46590;DHT22;32313;48.722;9.362;2024-03-07T14:38:22;8.70;99.90
46590;DHT22;32313;48.722;9.362;2024-03-07T14:40:51;8.50;99.90
46590;DHT22;32313;48.722;9.362;2024-03-07T14:43:18;8.40;99.90
46590;DHT22;32313;48.722;9.362;2024-03-07T14:45:45;8.40;99.90
46590;DHT22;32313;48.722;9.362;2024-03-07T14:48:12;8.40;99.90
46590;DHT22;32313;48.722;9.362;2024-03-07T14:50:42;8.40;99.90
46590;DHT22;32313;48.722;9.362;2024-03-07T14:53:10;8.50;99.90
46590;DHT22;32313;48.722;9.362;2024-03-07T14:55:39;8.50;99.90
46590;DHT22;32313;48.722;9.362;2024-03-07T14:58:06;8.60;99.90
46590;DHT22;32313;48.722;9.362;2024-03-07T15:00:36;8.60;99.90
46590;DHT22;32313;48.722;9.362;2024-03-07T15:03:14;8.60;99.90
46590;DHT22;32313;48.722;9.362;2024-03-07T15:05:41;8.50;99.90
46590;DHT22;32313;48.722;9.362;2024-03-07T15:08:07;8.50;99.90
46590;DHT22;32313;48.722;9.362;2024-03-07T15:10:36;8.50;99.90
46590;DHT22;32313;48.722;9.362;2024-03-07T15:13:03;8.50;99.90
46590;DHT22;32313;48.722;9.362;2024-03-07T15:15:29;8.60;99.90
46590;DHT22;32313;48.722;9.362;2024-03-07T15:17:58;8.60;99.90
46590;DHT22;32313;48.722;9.362;2024-03-07T15:20:25;8.60;99.90
46590;DHT22;32313;48.722;9.362;2024-03-07T15:22:58;8.50;99.90
46590;DHT22;32313;48.722;9.362;2024-03-07T15:25:25;8.40;99.90
46590;DHT22;32313;48.722;9.362;2024-03-07T15:27:55;8.30;99.90
46590;DHT22;32313;48.722;9.362;2024-03-07T15:30:26;8.30;99.90
46590;DHT22;32313;48.722;9.362;2024-03-07T15:32:57;8.30;99.90
46590;DHT22;32313;48.722;9.362;2024-03-07T15:35:25;8.20;99.90
46590;DHT22;32313;48.722;9.362;2024-03-07T15:37:53;8.20;99.90
46590;DHT22;32313;48.722;9.362;2024-03-07T15:40:20;8.20;99.90
46590;DHT22;32313;48.722;9.362;2024-03-07T15:42:48;8.20;99.90
46590;DHT22;32313;48.722;9.362;2024-03-07T15:45:18;8.00;99.90
46590;DHT22;32313;48.722;9.362;2024-03-07T15:47:55;8.00;99.90
46590;DHT22;32313;48.722;9.362;2024-03-07T15:50:25;7.90;99.90
46590;DHT22;32313;48.722;9.362;2024-03-07T15:52:56;7.70;99.90
46590;DHT22;32313;48.722;9.362;2024-03-07T15:55:23;7.60;99.90
46590;DHT22;32313;48.722;9.362;2024-03-07T15:57:54;7.50;99.90
46590;DHT22;32313;48.722;9.362;2024-03-07T16:00:26;7.50;99.90
46590;DHT22;32313;48.722;9.362;2024-03-07T16:05:20;7.40;99.90
46590;DHT22;32313;48.722;9.362;2024-03-07T16:07:51;7.30;99.90
46590;DHT22;32313;48.722;9.362;2024-03-07T16:10:19;7.30;99.90
46590;DHT22;32313;48.722;9.362;2024-03-07T16:12:45;7.30;99.90
46590;DHT22;32313;48.722;9.362;2024-03-07T16:15:12;7.20;99.90
46590;DHT22;32313;48.722;9.362;2024-03-07T16:17:38;7.20;99.90